Arden, NY (10910)

2:03 PM EST on February 01, 2015 (GMT -0500)
N2KI - Skywarn Spotter ID 13-330NYC | Change Station
CLOSE
Current Station
Personal Weather Station
Location: Washingtonville, NY
Elevation: 300 ft
Nearby Weather Stations
Active Advisory: Winter Storm Warning

Elev 300 ft 41.42 °N, 74.15 °W | Updated 4 seconds ago

Mostly Cloudy
Mostly Cloudy
34.1 °F
Feels Like 31 °F
N
3.5
Wind Variable Wind from NNW
Gusts 3.5 mph

Today
High -- | Low -- °F
--% Chance of Precip.
Yesterday
High -- | Low -- °F
Precip. -- in
7:08 AM 5:12 PM
Waxing Gibbous, 96% visible
Pressure 30.12 in
Visibility 20.0 miles
Clouds Scattered Clouds 3000 ft
Mostly Cloudy 5000 ft
Windchill 31 °F
Dew Point 21 °F
Humidity 59%
Rainfall 0.00 in
Snow Depth Not available.
UV 1 out of 12
Pollen .10 out of 12
Air Quality Not available.
Flu Activity Not available.
METAR KSWF 011845Z 29012KT 20SM SCT030 BKN050 00/M06 A3012

More Conditions Fewer Conditions

Pressure 30.12 in
Visibility 20.0 miles
Clouds Scattered Clouds 3000 ft
Mostly Cloudy 5000 ft
Windchill 31 °F
Dew Point 21 °F
Humidity 59%
Rainfall 0.00 in
Snow Depth Not available.
UV 1 out of 12
Pollen .10 out of 12
Air Quality Not available.
Flu Activity Not available.
METAR KSWF 011845Z 29012KT 20SM SCT030 BKN050 00/M06 A3012

More Conditions Fewer Conditions

10-Day Weather Forecast

Almanac

Astronomy

Feb. 01, 2015 Rise Set
Actual Time
Civil Twilight
Nautical Twilight
Astronomical Twilight
Moon
Length of Visible Light
Length of Day
Tomorrow will be .
, % of the Moon is Illuminated

Today's Extremes

State Highs State Lows

Community

WunderPhotos

Upload Photos

1,792,448 photos uploaded!

WunderBlogs® & News

Nearby

Air Quality

  Air Quality AQ Index Pollutant
Not available.

Snow Depth

Station Depth Elevation

Earthquake Activity

City Distance Mag. Time & Date
Minimum magnitude displayed is 2.5.

Coastal Water Temperatures

Place Temperature

Nearby Weather Stations